createdAt,value
2018-11-21T00:00:19.977Z,58.96
2018-11-21T00:02:48.723Z,58.25
2018-11-21T00:05:16.847Z,58.36
2018-11-21T00:07:44.960Z,58.23
2018-11-21T00:10:13.397Z,60.00
2018-11-21T00:12:44.037Z,57.72
2018-11-21T00:15:12.102Z,58.20
2018-11-21T00:17:40.135Z,58.92
2018-11-21T00:20:09.790Z,58.44
2018-11-21T00:22:37.972Z,56.44
2018-11-21T00:25:06.065Z,56.69
2018-11-21T00:27:34.148Z,57.64
2018-11-21T00:30:02.196Z,58.08
2018-11-21T00:32:30.225Z,57.03
2018-11-21T00:34:58.302Z,57.73
2018-11-21T00:37:26.406Z,59.54
2018-11-21T00:39:54.697Z,56.92
2018-11-21T00:42:22.753Z,58.17
2018-11-21T00:44:50.818Z,57.75
2018-11-21T00:47:18.849Z,58.95
2018-11-21T00:49:46.963Z,60.28
2018-11-21T00:52:14.983Z,59.54
2018-11-21T00:54:43.124Z,58.00
2018-11-21T00:57:11.190Z,57.36
2018-11-21T00:59:40.230Z,57.38
2018-11-21T01:02:07.760Z,56.79
2018-11-21T01:04:35.800Z,56.90
2018-11-21T01:07:03.875Z,56.30
2018-11-21T01:09:31.942Z,56.91
2018-11-21T01:12:00.019Z,57.31
2018-11-21T01:14:28.047Z,56.62
2018-11-21T01:16:56.127Z,56.86
2018-11-21T01:19:24.334Z,55.92
2018-11-21T01:21:52.342Z,57.93
2018-11-21T01:24:20.413Z,57.46
2018-11-21T01:26:48.621Z,56.94
2018-11-21T01:29:16.649Z,56.27
2018-11-21T01:31:44.727Z,57.82
2018-11-21T01:34:12.854Z,57.79
2018-11-21T01:36:40.955Z,56.22
2018-11-21T01:39:10.453Z,58.38
2018-11-21T01:41:38.644Z,57.58
2018-11-21T01:44:07.123Z,57.26
2018-11-21T01:46:35.833Z,57.11
2018-11-21T01:49:03.897Z,55.94
2018-11-21T01:51:32.447Z,57.41
2018-11-21T01:54:00.604Z,56.47
2018-11-21T01:56:28.700Z,56.33
2018-11-21T01:58:56.846Z,55.62
2018-11-21T02:01:24.906Z,55.59
2018-11-21T02:03:53.017Z,56.32
2018-11-21T02:06:21.025Z,56.30
2018-11-21T02:08:49.139Z,55.88
2018-11-21T02:11:17.191Z,55.55
2018-11-21T02:13:45.298Z,56.96
2018-11-21T02:16:13.373Z,55.68
2018-11-21T02:18:41.408Z,55.55
2018-11-21T02:21:09.481Z,56.03
2018-11-21T02:23:37.528Z,55.84
2018-11-21T02:26:05.928Z,56.43
2018-11-21T02:28:33.975Z,56.53
2018-11-21T02:31:02.076Z,55.21
2018-11-21T02:33:30.102Z,55.59
2018-11-21T02:35:58.182Z,55.68
2018-11-21T02:38:26.200Z,55.08
2018-11-21T02:40:54.237Z,54.84
2018-11-21T02:43:22.306Z,56.93
2018-11-21T02:45:50.344Z,55.97
2018-11-21T02:48:18.570Z,55.08
2018-11-21T02:50:46.608Z,56.04
2018-11-21T02:53:14.714Z,56.00
2018-11-21T02:55:42.739Z,56.30
2018-11-21T02:58:10.816Z,56.09
2018-11-21T03:00:38.837Z,55.95
2018-11-21T03:03:08.444Z,55.99
2018-11-21T03:05:36.440Z,55.55
2018-11-21T03:08:04.683Z,55.89
2018-11-21T03:10:32.775Z,55.76
2018-11-21T03:13:00.849Z,55.24
2018-11-21T03:15:28.899Z,55.82
2018-11-21T03:17:56.940Z,55.63
2018-11-21T03:20:25.010Z,57.36
2018-11-21T03:22:53.080Z,56.86
2018-11-21T03:25:21.137Z,56.31
2018-11-21T03:27:49.170Z,55.39
2018-11-21T03:30:17.352Z,55.90
2018-11-21T03:32:45.387Z,55.68
2018-11-21T03:35:13.460Z,56.07
2018-11-21T03:37:41.526Z,55.38
2018-11-21T03:40:11.224Z,55.36
2018-11-21T03:42:39.618Z,55.50
2018-11-21T03:45:09.435Z,54.91
2018-11-21T03:47:37.512Z,54.57
2018-11-21T03:50:07.472Z,54.23
2018-11-21T03:52:35.548Z,54.47
2018-11-21T03:55:03.613Z,56.46
2018-11-21T03:57:31.710Z,55.75
2018-11-21T03:59:59.746Z,55.27
2018-11-21T04:02:27.853Z,56.86
2018-11-21T04:04:55.901Z,55.94
2018-11-21T04:07:23.995Z,55.24
2018-11-21T04:09:52.068Z,55.32
2018-11-21T04:12:20.143Z,55.65
2018-11-21T04:14:48.185Z,55.76
2018-11-21T04:17:16.189Z,55.11
2018-11-21T04:19:44.304Z,55.55
2018-11-21T04:22:12.361Z,56.90
2018-11-21T04:24:40.445Z,56.52
2018-11-21T04:27:08.484Z,54.83
2018-11-21T04:29:36.566Z,54.93
2018-11-21T04:32:04.611Z,57.64
2018-11-21T04:34:32.675Z,55.55
2018-11-21T04:37:00.744Z,55.42
2018-11-21T04:39:28.812Z,55.22
2018-11-21T04:41:56.842Z,56.30
2018-11-21T04:44:24.960Z,56.43
2018-11-21T04:46:52.963Z,55.48
2018-11-21T04:49:21.026Z,55.13
2018-11-21T04:51:49.099Z,55.11
2018-11-21T04:54:17.298Z,54.20
2018-11-21T04:56:45.359Z,54.80
2018-11-21T04:59:13.399Z,54.25
2018-11-21T05:01:41.523Z,55.39
2018-11-21T05:04:09.597Z,55.45
2018-11-21T05:06:37.853Z,55.23
2018-11-21T05:09:09.116Z,56.76
2018-11-21T05:11:37.226Z,57.82
2018-11-21T05:14:05.499Z,56.35
2018-11-21T05:16:33.871Z,56.26
2018-11-21T05:19:01.900Z,54.80
2018-11-21T05:21:29.943Z,55.04
2018-11-21T05:23:58.001Z,56.94
2018-11-21T05:26:26.060Z,57.95
2018-11-21T05:28:54.100Z,55.38
2018-11-21T05:31:22.188Z,55.89
2018-11-21T05:33:50.261Z,54.99
2018-11-21T05:36:18.318Z,54.72
2018-11-21T05:38:46.416Z,54.59
2018-11-21T05:41:14.493Z,54.88
2018-11-21T05:43:42.631Z,55.64
2018-11-21T05:46:10.706Z,54.48
2018-11-21T05:48:38.841Z,56.63
2018-11-21T05:51:06.874Z,54.91
2018-11-21T05:53:34.895Z,54.62
2018-11-21T05:56:02.973Z,55.25
2018-11-21T05:58:31.079Z,54.61
2018-11-21T06:00:59.125Z,54.90
2018-11-21T06:03:27.210Z,57.03
2018-11-21T06:05:55.295Z,57.22
2018-11-21T06:08:23.347Z,56.36
2018-11-21T06:10:51.554Z,56.28
2018-11-21T06:13:19.716Z,56.57
2018-11-21T06:15:47.701Z,56.48
2018-11-21T06:18:15.731Z,55.33
2018-11-21T06:20:43.793Z,55.87
2018-11-21T06:23:11.996Z,55.65
2018-11-21T06:25:40.080Z,58.09
2018-11-21T06:28:08.141Z,57.30
2018-11-21T06:30:36.227Z,55.53
2018-11-21T06:33:04.858Z,55.28
2018-11-21T06:35:32.925Z,55.23
2018-11-21T06:38:01.000Z,54.46
2018-11-21T06:40:29.098Z,55.19
2018-11-21T06:42:58.373Z,56.06
2018-11-21T06:45:27.591Z,54.42
2018-11-21T06:47:55.653Z,57.85
2018-11-21T06:50:23.695Z,56.36
2018-11-21T06:52:52.167Z,55.14
2018-11-21T06:55:20.220Z,55.87
2018-11-21T06:57:48.404Z,55.42
2018-11-21T07:00:16.436Z,56.22
2018-11-21T07:02:44.471Z,56.51
2018-11-21T07:05:12.594Z,55.11
2018-11-21T07:07:40.634Z,54.20
2018-11-21T07:10:11.532Z,54.15
2018-11-21T07:12:39.606Z,53.94
2018-11-21T07:15:08.071Z,54.63
2018-11-21T07:17:36.125Z,54.13
2018-11-21T07:20:24.037Z,55.57
2018-11-21T07:22:52.095Z,54.38
2018-11-21T07:25:21.621Z,55.48
2018-11-21T07:27:49.648Z,54.70
2018-11-21T07:30:18.180Z,54.94
2018-11-21T07:32:46.185Z,55.49
2018-11-21T07:35:18.150Z,54.53
2018-11-21T07:37:43.059Z,55.62
2018-11-21T07:40:12.696Z,54.37
2018-11-21T07:42:40.944Z,55.98
2018-11-21T07:45:10.808Z,54.78
2018-11-21T07:47:39.487Z,57.00
2018-11-21T07:50:26.703Z,55.20
2018-11-21T07:52:54.782Z,55.84
2018-11-21T07:55:22.928Z,54.91
2018-11-21T07:57:52.616Z,54.59
2018-11-21T08:01:09.664Z,56.74
2018-11-21T08:03:57.012Z,57.58
2018-11-21T08:06:31.574Z,55.05
2018-11-21T08:09:18.816Z,54.21
2018-11-21T08:12:06.011Z,55.27
2018-11-21T08:14:53.276Z,57.03
2018-11-21T08:17:40.481Z,58.72
2018-11-21T08:20:28.909Z,56.39
2018-11-21T08:23:16.175Z,55.97
2018-11-21T08:26:03.440Z,55.81
2018-11-21T08:28:31.698Z,54.74
2018-11-21T08:30:59.823Z,54.61
2018-11-21T08:33:33.911Z,55.50
2018-11-21T08:35:56.825Z,55.99
2018-11-21T08:38:24.946Z,55.23
2018-11-21T08:40:52.971Z,54.58
2018-11-21T08:43:21.020Z,54.15
2018-11-21T08:45:49.131Z,54.20
2018-11-21T08:48:18.057Z,53.24
2018-11-21T08:50:46.119Z,53.34
2018-11-21T08:53:14.195Z,53.82
2018-11-21T08:55:42.401Z,53.36
2018-11-21T08:58:10.527Z,54.03
2018-11-21T09:00:38.600Z,54.51
2018-11-21T09:03:07.129Z,55.84
2018-11-21T09:05:35.155Z,55.42
2018-11-21T09:08:03.538Z,54.95
2018-11-21T09:12:59.283Z,54.66
2018-11-21T09:15:27.365Z,55.92
2018-11-21T09:17:55.404Z,56.81
2018-11-21T09:20:23.478Z,57.19
2018-11-21T09:22:51.525Z,58.08
2018-11-21T09:25:19.606Z,57.36
2018-11-21T09:27:47.749Z,56.57
2018-11-21T09:30:19.773Z,56.20
2018-11-21T09:32:49.386Z,55.22
2018-11-21T09:35:18.173Z,55.57
2018-11-21T09:37:46.252Z,56.19
2018-11-21T09:40:34.232Z,56.80
2018-11-21T09:43:02.311Z,54.95
2018-11-21T09:45:30.389Z,54.18
2018-11-21T09:47:58.496Z,53.42
2018-11-21T09:50:28.068Z,52.72
2018-11-21T09:52:56.160Z,56.25
2018-11-21T09:55:24.265Z,54.27
2018-11-21T09:57:52.340Z,52.97
2018-11-21T10:00:58.710Z,55.11
2018-11-21T10:03:28.730Z,55.13
2018-11-21T10:06:35.138Z,54.21
2018-11-21T10:09:22.371Z,54.39
2018-11-21T10:11:50.476Z,54.74
2018-11-21T10:14:18.627Z,56.02
2018-11-21T10:16:46.766Z,56.44
2018-11-21T10:21:49.700Z,53.48
2018-11-21T10:24:17.884Z,55.88
2018-11-21T10:26:45.923Z,55.17
2018-11-21T10:29:14.062Z,53.87
2018-11-21T10:31:42.165Z,51.88
2018-11-21T10:34:10.239Z,52.76
2018-11-21T10:36:38.415Z,51.82
2018-11-21T10:39:08.724Z,52.75
2018-11-21T10:41:36.914Z,52.36
2018-11-21T10:44:05.170Z,55.30
2018-11-21T10:46:33.213Z,53.45
2018-11-21T10:49:01.354Z,52.83
2018-11-21T10:51:29.416Z,54.63
2018-11-21T10:53:57.505Z,54.90
2018-11-21T10:56:25.580Z,53.56
2018-11-21T10:58:53.713Z,55.41
2018-11-21T11:01:40.931Z,53.79
2018-11-21T11:04:28.298Z,53.57
2018-11-21T11:07:15.463Z,54.36
2018-11-21T11:10:02.815Z,54.42
2018-11-21T11:12:50.044Z,54.47
2018-11-21T11:15:37.280Z,55.37
2018-11-21T11:18:24.696Z,53.14
2018-11-21T11:21:11.983Z,54.15
2018-11-21T11:23:59.223Z,52.48
2018-11-21T11:26:38.115Z,52.55
2018-11-21T11:29:20.171Z,54.73
2018-11-21T11:32:07.406Z,53.76
2018-11-21T11:34:54.644Z,52.50
2018-11-21T11:37:44.351Z,55.43
2018-11-21T11:40:31.546Z,52.73
2018-11-21T11:43:18.807Z,53.61
2018-11-21T11:46:06.169Z,54.38
2018-11-21T11:48:53.535Z,54.74
2018-11-21T11:51:40.757Z,55.57
2018-11-21T11:54:28.080Z,54.23
2018-11-21T11:57:15.363Z,52.44
2018-11-21T12:00:02.985Z,51.71
2018-11-21T12:02:50.240Z,54.00
2018-11-21T12:05:37.497Z,52.55
2018-11-21T12:08:16.576Z,52.28
2018-11-21T12:11:03.794Z,54.64
2018-11-21T12:13:51.071Z,53.18
2018-11-21T12:16:38.337Z,53.82
2018-11-21T12:19:25.594Z,53.25
2018-11-21T12:22:16.640Z,53.83
2018-11-21T12:25:03.865Z,53.51
2018-11-21T12:27:51.135Z,53.92
2018-11-21T12:30:38.353Z,52.92
2018-11-21T12:33:25.636Z,52.80
2018-11-21T12:36:12.873Z,55.62
2018-11-21T12:39:00.197Z,56.15
2018-11-21T12:41:47.398Z,53.78
2018-11-21T12:44:46.940Z,53.78
2018-11-21T12:47:34.191Z,54.01
2018-11-21T12:50:21.452Z,52.69
2018-11-21T12:53:08.688Z,54.39
2018-11-21T12:55:55.937Z,52.96
2018-11-21T12:58:43.151Z,54.21
2018-11-21T13:01:30.425Z,56.96
2018-11-21T13:04:17.804Z,58.15
2018-11-21T13:07:05.087Z,56.11
2018-11-21T13:09:56.643Z,56.42
2018-11-21T13:12:39.558Z,57.36
2018-11-21T13:15:27.617Z,55.50
2018-11-21T13:18:14.898Z,54.22
2018-11-21T13:21:02.206Z,54.96
2018-11-21T13:23:49.491Z,54.97
2018-11-21T13:26:36.762Z,52.97
2018-11-21T13:29:24.025Z,53.72
2018-11-21T13:32:11.260Z,53.37
2018-11-21T13:34:58.526Z,55.81
2018-11-21T13:37:45.796Z,55.40
2018-11-21T13:40:33.082Z,55.12
2018-11-21T13:43:20.395Z,54.13
2018-11-21T13:46:07.637Z,53.56
2018-11-21T13:48:55.623Z,53.06
2018-11-21T13:51:42.974Z,52.45
2018-11-21T13:54:29.521Z,52.97
2018-11-21T13:56:57.656Z,52.46
2018-11-21T13:59:25.752Z,53.11
2018-11-21T14:01:53.879Z,52.51
2018-11-21T14:04:21.961Z,52.15
2018-11-21T14:06:50.047Z,53.36
2018-11-21T14:09:25.279Z,55.20
2018-11-21T14:11:53.433Z,54.59
2018-11-21T14:14:21.549Z,53.70
2018-11-21T14:16:49.617Z,55.80
2018-11-21T14:19:17.769Z,56.89
2018-11-21T14:21:45.812Z,56.36
2018-11-21T14:24:13.937Z,55.75
2018-11-21T14:26:42.057Z,54.86
2018-11-21T14:29:10.184Z,57.24
2018-11-21T14:31:38.240Z,56.58
2018-11-21T14:34:06.384Z,57.64
2018-11-21T14:36:34.447Z,56.63
2018-11-21T14:39:02.534Z,55.73
2018-11-21T14:41:30.597Z,57.10
2018-11-21T14:44:17.840Z,56.38
2018-11-21T14:46:48.040Z,55.79
2018-11-21T14:49:16.091Z,56.25
2018-11-21T14:51:44.194Z,55.23
2018-11-21T14:54:12.271Z,53.91
2018-11-21T14:56:40.408Z,55.63
2018-11-21T14:59:08.532Z,56.23
2018-11-21T15:01:36.619Z,54.49
2018-11-21T15:04:05.001Z,53.21
2018-11-21T15:06:33.081Z,53.34
2018-11-21T15:09:01.491Z,53.47
2018-11-21T15:11:29.559Z,55.16
2018-11-21T15:13:57.614Z,53.96
2018-11-21T15:16:44.848Z,53.28
2018-11-21T15:19:12.919Z,54.61
2018-11-21T15:22:00.189Z,54.34
2018-11-21T15:24:28.311Z,53.25
2018-11-21T15:26:56.357Z,56.34
2018-11-21T15:29:24.600Z,56.95
2018-11-21T15:31:52.660Z,56.06
2018-11-21T15:34:20.800Z,55.40
2018-11-21T15:36:48.819Z,57.58
2018-11-21T15:39:16.910Z,56.05
2018-11-21T15:41:45.094Z,57.36
2018-11-21T15:44:13.204Z,56.01
2018-11-21T15:46:45.643Z,57.23
2018-11-21T15:49:09.346Z,55.23
2018-11-21T15:51:38.065Z,55.22
2018-11-21T15:54:06.160Z,55.03
2018-11-21T15:56:34.224Z,55.12
2018-11-21T15:59:02.287Z,55.97
2018-11-21T16:01:49.556Z,55.28
2018-11-21T16:04:17.831Z,54.66
2018-11-21T16:06:45.887Z,56.36
2018-11-21T16:09:13.980Z,55.88
2018-11-21T16:11:42.040Z,54.55
2018-11-21T16:14:10.115Z,55.21
2018-11-21T16:16:38.166Z,55.28
2018-11-21T16:19:06.274Z,54.63
2018-11-21T16:21:34.338Z,55.39
2018-11-21T16:24:02.398Z,56.48
2018-11-21T16:26:30.484Z,54.58
2018-11-21T16:28:58.562Z,53.42
2018-11-21T16:31:26.696Z,54.07
2018-11-21T16:33:54.818Z,55.94
2018-11-21T16:36:27.273Z,55.22
2018-11-21T16:38:50.958Z,55.50
2018-11-21T16:41:19.056Z,55.16
2018-11-21T16:43:47.102Z,55.68
2018-11-21T16:46:15.173Z,55.30
2018-11-21T16:48:43.254Z,55.16
2018-11-21T16:51:11.298Z,55.73
2018-11-21T16:53:39.383Z,56.05
2018-11-21T16:56:07.553Z,56.83
2018-11-21T16:58:35.661Z,55.70
2018-11-21T17:01:03.997Z,55.77
2018-11-21T17:03:32.078Z,55.75
2018-11-21T17:06:00.209Z,57.45
2018-11-21T17:08:28.376Z,56.40
2018-11-21T17:10:56.501Z,57.89
2018-11-21T17:13:24.588Z,56.30
2018-11-21T17:15:52.694Z,57.50
2018-11-21T17:18:20.731Z,57.60
2018-11-21T17:20:48.846Z,57.39
2018-11-21T17:23:16.961Z,58.44
2018-11-21T17:25:45.052Z,59.60
2018-11-21T17:28:13.190Z,58.70
2018-11-21T17:30:41.287Z,58.38
2018-11-21T17:33:09.440Z,57.61
2018-11-21T17:35:37.491Z,57.86
2018-11-21T17:38:05.595Z,57.53
2018-11-21T17:40:38.082Z,58.32
2018-11-21T17:43:06.326Z,58.87
2018-11-21T17:45:34.385Z,58.24
2018-11-21T17:48:02.681Z,57.57
2018-11-21T17:50:30.760Z,57.82
2018-11-21T17:53:00.361Z,57.45
2018-11-21T17:55:29.526Z,56.64
2018-11-21T17:57:57.699Z,57.89
2018-11-21T18:00:27.206Z,55.59
2018-11-21T18:02:55.317Z,55.41
2018-11-21T18:05:25.209Z,56.80
2018-11-21T18:07:53.292Z,57.13
2018-11-21T18:10:23.031Z,58.22
2018-11-21T18:12:51.097Z,58.02
2018-11-21T18:15:19.698Z,57.68
2018-11-21T18:17:48.457Z,56.19
2018-11-21T18:20:17.225Z,57.35
2018-11-21T18:22:46.080Z,57.76
2018-11-21T18:25:19.387Z,57.03
2018-11-21T18:27:47.426Z,57.82
2018-11-21T18:30:17.235Z,59.07
2018-11-21T18:32:45.811Z,59.81
2018-11-21T18:35:18.087Z,58.17
2018-11-21T18:37:46.730Z,59.95
2018-11-21T18:40:16.289Z,57.51
2018-11-21T18:42:44.552Z,58.63
2018-11-21T18:45:51.940Z,59.31
2018-11-21T18:48:20.061Z,60.08
2018-11-21T18:50:48.103Z,58.78
2018-11-21T18:53:16.211Z,59.03
2018-11-21T18:55:50.348Z,60.76
2018-11-21T18:58:39.958Z,59.88
2018-11-21T19:01:08.061Z,58.40
2018-11-21T19:03:36.160Z,59.55
2018-11-21T19:06:04.298Z,60.63
2018-11-21T19:08:32.421Z,59.14
2018-11-21T19:11:00.496Z,61.38
2018-11-21T19:13:29.172Z,60.76
2018-11-21T19:15:57.271Z,58.67
2018-11-21T19:18:25.312Z,58.63
2018-11-21T19:20:53.389Z,59.87
2018-11-21T19:23:21.433Z,58.20
2018-11-21T19:25:49.532Z,58.78
2018-11-21T19:28:17.573Z,61.09
2018-11-21T19:30:45.808Z,59.44
2018-11-21T19:33:13.866Z,61.82
2018-11-21T19:35:41.964Z,63.41
2018-11-21T19:38:10.028Z,61.82
2018-11-21T19:40:38.131Z,63.28
2018-11-21T19:43:06.219Z,62.07
2018-11-21T19:45:34.454Z,59.98
2018-11-21T19:48:02.611Z,60.71
2018-11-21T19:50:30.675Z,60.76
2018-11-21T19:53:18.040Z,61.47
2018-11-21T19:55:46.135Z,61.17
2018-11-21T19:58:14.214Z,61.17
2018-11-21T20:00:42.294Z,60.42
2018-11-21T20:03:10.341Z,58.98
2018-11-21T20:05:38.726Z,61.20
2018-11-21T20:08:07.009Z,59.56
2018-11-21T20:10:35.214Z,60.47
2018-11-21T20:13:03.666Z,60.71
2018-11-21T20:15:31.895Z,59.47
2018-11-21T20:18:01.290Z,59.38
2018-11-21T20:20:29.413Z,60.76
2018-11-21T20:22:57.517Z,64.07
2018-11-21T20:25:26.137Z,61.19
2018-11-21T20:27:54.205Z,62.28
2018-11-21T20:30:23.861Z,61.47
2018-11-21T20:32:51.974Z,61.37
2018-11-21T20:35:20.022Z,61.14
2018-11-21T20:37:48.118Z,62.63
2018-11-21T20:40:35.559Z,64.06
2018-11-21T20:43:03.706Z,63.75
2018-11-21T20:45:31.755Z,61.27
2018-11-21T20:48:00.793Z,59.57
2018-11-21T20:50:28.928Z,60.96
2018-11-21T20:52:57.019Z,62.11
2018-11-21T20:55:26.798Z,62.39
2018-11-21T20:57:54.907Z,61.78
2018-11-21T21:00:24.713Z,62.55
2018-11-21T21:02:52.811Z,62.09
2018-11-21T21:05:22.476Z,60.40
2018-11-21T21:07:50.560Z,63.12
2018-11-21T21:10:23.207Z,63.18
2018-11-21T21:12:51.272Z,61.49
2018-11-21T21:15:19.407Z,61.41
2018-11-21T21:17:48.289Z,61.95
2018-11-21T21:20:17.859Z,61.34
2018-11-21T21:22:46.933Z,59.92
2018-11-21T21:25:16.659Z,61.42
2018-11-21T21:27:44.763Z,60.46
2018-11-21T21:30:18.150Z,61.05
2018-11-21T21:32:46.939Z,61.63
2018-11-21T21:35:16.067Z,61.01
2018-11-21T21:37:44.317Z,61.60
2018-11-21T21:40:32.231Z,61.62
2018-11-21T21:43:00.412Z,62.03
2018-11-21T21:45:29.650Z,61.29
2018-11-21T21:47:57.918Z,62.68
2018-11-21T21:50:27.739Z,62.10
2018-11-21T21:53:15.251Z,63.29
2018-11-21T21:55:43.320Z,63.83
2018-11-21T21:58:11.513Z,61.18
2018-11-21T22:00:39.710Z,61.76
2018-11-21T22:03:07.854Z,60.93
2018-11-21T22:05:35.892Z,60.63
2018-11-21T22:08:03.954Z,59.60
2018-11-21T22:10:32.013Z,59.25
2018-11-21T22:13:00.105Z,60.44
2018-11-21T22:15:29.519Z,59.50
2018-11-21T22:17:59.215Z,60.97
2018-11-21T22:20:27.306Z,58.64
2018-11-21T22:22:55.598Z,58.86
2018-11-21T22:25:24.375Z,58.83
2018-11-21T22:27:52.429Z,59.22
2018-11-21T22:30:21.178Z,59.79
2018-11-21T22:32:50.004Z,61.60
2018-11-21T22:35:24.914Z,62.09
2018-11-21T22:37:51.389Z,59.78
2018-11-21T22:40:16.370Z,59.14
2018-11-21T22:42:45.146Z,60.44
2018-11-21T22:45:14.605Z,59.43
2018-11-21T22:47:42.999Z,58.58
2018-11-21T22:50:13.311Z,60.90
2018-11-21T22:52:41.409Z,60.24
2018-11-21T22:55:10.328Z,58.94
2018-11-21T22:57:38.344Z,58.65
2018-11-21T23:00:10.505Z,58.36
2018-11-21T23:02:38.571Z,57.44
2018-11-21T23:05:08.181Z,58.42
2018-11-21T23:07:36.625Z,58.63
2018-11-21T23:10:05.564Z,59.55
2018-11-21T23:12:33.603Z,61.22
2018-11-21T23:15:01.708Z,59.11
2018-11-21T23:17:29.817Z,61.10
2018-11-21T23:19:57.898Z,58.68
2018-11-21T23:22:26.657Z,57.64
2018-11-21T23:24:53.988Z,57.34
2018-11-21T23:27:22.096Z,57.50
2018-11-21T23:29:50.122Z,58.37
2018-11-21T23:32:18.217Z,57.61
2018-11-21T23:34:46.259Z,59.04
2018-11-21T23:37:14.280Z,58.51
2018-11-21T23:39:42.346Z,58.97
2018-11-21T23:42:10.386Z,57.39
2018-11-21T23:44:38.551Z,58.77
2018-11-21T23:47:06.636Z,58.84
2018-11-21T23:49:34.738Z,58.53
2018-11-21T23:52:02.799Z,57.87
2018-11-21T23:54:30.876Z,57.73
2018-11-21T23:57:15.867Z,58.85
2018-11-21T23:59:27.039Z,58.32
